createdAt,value
2022-11-26T00:03:44.101Z,3.00
2022-11-26T00:08:45.957Z,3.00
2022-11-26T00:13:47.837Z,2.90
2022-11-26T00:18:49.640Z,3.20
2022-11-26T00:23:52.721Z,3.30
2022-11-26T00:28:56.905Z,3.30
2022-11-26T00:33:58.701Z,3.40
2022-11-26T00:39:07.483Z,3.40
2022-11-26T00:44:19.856Z,3.30
2022-11-26T00:49:21.758Z,3.40
2022-11-26T00:54:23.787Z,3.40
2022-11-26T00:59:25.598Z,3.40
2022-11-26T01:04:27.410Z,3.40
2022-11-26T01:09:29.270Z,3.30
2022-11-26T01:14:31.067Z,3.40
2022-11-26T01:19:32.948Z,3.50
2022-11-26T01:24:34.782Z,3.50
2022-11-26T01:29:36.864Z,3.50
2022-11-26T01:34:38.875Z,3.60
2022-11-26T01:39:41.144Z,3.70
2022-11-26T01:44:43.175Z,3.80
2022-11-26T01:50:23.582Z,3.80
2022-11-26T01:55:31.000Z,3.90
2022-11-26T02:00:33.034Z,4.10
2022-11-26T02:05:40.907Z,4.10
2022-11-26T02:10:42.798Z,4.10
2022-11-26T02:15:58.502Z,4.20
2022-11-26T02:21:12.554Z,4.20
2022-11-26T02:26:35.526Z,4.20
2022-11-26T02:32:05.771Z,4.20
2022-11-26T02:37:24.437Z,4.20
2022-11-26T02:42:31.524Z,4.20
2022-11-26T02:47:34.851Z,4.20
2022-11-26T02:52:37.167Z,4.20
2022-11-26T02:57:46.723Z,4.20
2022-11-26T03:02:50.642Z,4.20
2022-11-26T03:07:54.272Z,4.30
2022-11-26T03:12:56.403Z,4.30
2022-11-26T03:17:58.278Z,4.30
2022-11-26T03:23:00.069Z,4.30
2022-11-26T03:28:03.910Z,4.20
2022-11-26T03:33:05.810Z,4.10
2022-11-26T03:38:07.893Z,4.20
2022-11-26T03:43:09.725Z,4.10
2022-11-26T03:48:11.510Z,4.00
2022-11-26T03:53:13.326Z,3.80
2022-11-26T03:58:15.167Z,3.60
2022-11-26T04:03:17.315Z,3.50
2022-11-26T04:08:19.135Z,3.40
2022-11-26T04:13:20.992Z,3.50
2022-11-26T04:18:22.784Z,3.30
2022-11-26T04:23:24.610Z,3.30
2022-11-26T04:28:26.411Z,3.20
2022-11-26T04:33:28.354Z,3.20
2022-11-26T04:38:30.222Z,3.10
2022-11-26T04:43:32.055Z,3.00
2022-11-26T04:48:33.850Z,3.00
2022-11-26T04:53:35.689Z,2.90
2022-11-26T04:58:37.591Z,2.90
2022-11-26T05:03:39.422Z,2.90
2022-11-26T05:08:41.256Z,3.00
2022-11-26T05:13:43.085Z,2.80
2022-11-26T05:18:44.915Z,2.80
2022-11-26T05:23:46.693Z,2.70
2022-11-26T05:28:48.586Z,2.60
2022-11-26T05:33:50.462Z,2.70
2022-11-26T05:38:52.285Z,2.50
2022-11-26T05:43:54.114Z,2.30
2022-11-26T05:48:55.959Z,2.30
2022-11-26T05:53:58.069Z,2.40
2022-11-26T05:58:59.941Z,2.30
2022-11-26T06:04:02.228Z,2.00
2022-11-26T06:09:04.344Z,1.50
2022-11-26T06:14:06.138Z,1.20
2022-11-26T06:19:07.964Z,1.20
2022-11-26T06:24:10.094Z,1.10
2022-11-26T06:29:11.990Z,0.90
2022-11-26T06:34:16.125Z,0.90
2022-11-26T06:39:17.929Z,0.80
2022-11-26T06:44:19.746Z,1.10
2022-11-26T06:49:21.554Z,1.20
2022-11-26T06:54:23.341Z,1.40
2022-11-26T06:59:25.557Z,1.50
2022-11-26T07:04:27.366Z,2.30
2022-11-26T07:09:29.191Z,3.10
2022-11-26T07:14:31.004Z,3.40
2022-11-26T07:19:32.846Z,3.60
2022-11-26T07:24:34.648Z,3.80
2022-11-26T07:29:36.477Z,3.90
2022-11-26T07:34:38.544Z,4.10
2022-11-26T07:39:40.505Z,4.30
2022-11-26T07:44:42.429Z,4.50
2022-11-26T07:49:44.274Z,4.70
2022-11-26T07:54:46.071Z,4.70
2022-11-26T07:59:47.984Z,4.70
2022-11-26T08:04:49.919Z,4.90
2022-11-26T08:09:51.750Z,4.90
2022-11-26T08:14:53.563Z,4.90
2022-11-26T08:19:55.385Z,4.90
2022-11-26T08:24:57.322Z,4.90
2022-11-26T08:29:59.132Z,4.90
2022-11-26T08:35:01.154Z,5.00
2022-11-26T08:40:03.182Z,5.10
2022-11-26T08:45:05.341Z,5.10
2022-11-26T08:50:07.813Z,5.10
2022-11-26T08:55:09.806Z,5.00
2022-11-26T09:00:12.127Z,5.30
2022-11-26T09:05:14.053Z,5.40
2022-11-26T09:10:15.984Z,5.40
2022-11-26T09:15:17.957Z,5.80
2022-11-26T09:20:20.044Z,5.80
2022-11-26T09:25:21.869Z,5.80
2022-11-26T09:30:23.837Z,5.60
2022-11-26T09:35:25.920Z,5.50
2022-11-26T09:40:40.774Z,5.40
2022-11-26T09:45:49.801Z,5.50
2022-11-26T09:50:59.866Z,5.50
2022-11-26T09:56:02.148Z,5.50
2022-11-26T10:01:06.106Z,5.40
2022-11-26T10:06:48.912Z,5.40
2022-11-26T10:12:16.259Z,5.30
2022-11-26T10:17:51.046Z,5.20
2022-11-26T10:23:05.507Z,5.40
2022-11-26T10:28:31.931Z,5.50
2022-11-26T10:33:38.675Z,5.60
2022-11-26T10:38:40.496Z,5.70
2022-11-26T10:43:42.335Z,5.80
2022-11-26T10:48:44.141Z,5.90
2022-11-26T10:54:00.434Z,5.80
2022-11-26T10:59:14.345Z,5.90
2022-11-26T11:04:43.640Z,5.80
2022-11-26T11:09:45.737Z,5.80
2022-11-26T11:14:50.283Z,5.80
2022-11-26T11:19:52.414Z,5.80
2022-11-26T11:24:56.231Z,5.90
2022-11-26T11:30:02.430Z,5.90
2022-11-26T11:35:33.576Z,5.90
2022-11-26T11:40:41.761Z,5.90
2022-11-26T11:46:12.692Z,5.90
2022-11-26T11:51:31.378Z,5.90
2022-11-26T11:56:41.885Z,6.00
2022-11-26T12:02:23.633Z,6.00
2022-11-26T12:07:47.945Z,5.90
2022-11-26T12:12:56.738Z,5.90
2022-11-26T12:18:01.435Z,5.80
2022-11-26T12:23:28.735Z,5.90
2022-11-26T12:28:41.151Z,5.90
2022-11-26T12:33:55.971Z,5.90
2022-11-26T12:39:04.175Z,6.10
2022-11-26T12:44:19.295Z,6.10
2022-11-26T12:49:30.194Z,6.00
2022-11-26T12:55:07.047Z,5.90
2022-11-26T13:00:24.961Z,5.90
2022-11-26T13:05:58.889Z,5.80
2022-11-26T13:11:09.897Z,5.90
2022-11-26T13:16:35.663Z,5.90
2022-11-26T13:22:11.418Z,5.90
2022-11-26T13:27:34.035Z,5.90
2022-11-26T13:33:04.401Z,5.90
2022-11-26T13:38:33.897Z,5.80
2022-11-26T13:44:07.091Z,5.80
2022-11-26T13:49:35.075Z,5.90
2022-11-26T13:54:51.998Z,5.80
2022-11-26T13:59:56.179Z,5.80
2022-11-26T14:04:58.769Z,5.80
2022-11-26T14:10:02.808Z,5.70
2022-11-26T14:15:42.590Z,5.80
2022-11-26T14:20:59.782Z,5.80
2022-11-26T14:26:01.691Z,5.70
2022-11-26T14:31:25.333Z,5.80
2022-11-26T14:36:28.650Z,5.70
2022-11-26T14:41:57.899Z,5.70
2022-11-26T14:47:20.535Z,5.70
2022-11-26T14:52:28.985Z,5.70
2022-11-26T14:57:55.152Z,5.80
2022-11-26T15:02:58.076Z,5.80
2022-11-26T15:08:06.386Z,5.70
2022-11-26T15:13:23.038Z,5.70
2022-11-26T15:18:29.765Z,5.70
2022-11-26T15:23:36.084Z,5.70
2022-11-26T15:28:41.170Z,5.60
2022-11-26T15:33:44.199Z,5.60
2022-11-26T15:39:07.312Z,5.60
2022-11-26T15:44:22.952Z,5.60
2022-11-26T15:49:36.758Z,5.60
2022-11-26T15:55:11.994Z,5.60
2022-11-26T16:00:17.846Z,5.70
2022-11-26T16:05:40.652Z,5.70
2022-11-26T16:10:46.366Z,5.70
2022-11-26T16:16:04.665Z,5.80
2022-11-26T16:21:30.137Z,5.70
2022-11-26T16:26:52.409Z,5.70
2022-11-26T16:31:54.917Z,5.60
2022-11-26T16:37:18.024Z,5.60
2022-11-26T16:42:22.691Z,5.50
2022-11-26T16:47:28.714Z,5.50
2022-11-26T16:52:30.617Z,5.50
2022-11-26T16:57:32.473Z,5.60
2022-11-26T17:02:34.570Z,5.60
2022-11-26T17:07:42.765Z,5.50
2022-11-26T17:12:45.488Z,5.50
2022-11-26T17:17:47.605Z,5.30
2022-11-26T17:22:49.575Z,5.30
2022-11-26T17:27:51.397Z,5.20
2022-11-26T17:32:53.234Z,5.30
2022-11-26T17:37:55.044Z,5.30
2022-11-26T17:42:56.892Z,5.30
2022-11-26T17:47:58.720Z,5.20
2022-11-26T17:53:00.562Z,5.20
2022-11-26T17:58:02.360Z,5.20
2022-11-26T18:03:04.331Z,5.10
2022-11-26T18:08:06.138Z,5.00
2022-11-26T18:13:07.989Z,4.90
2022-11-26T18:18:09.804Z,4.80
2022-11-26T18:23:11.990Z,4.80
2022-11-26T18:28:16.323Z,4.70
2022-11-26T18:33:18.110Z,4.70
2022-11-26T18:38:19.966Z,4.70
2022-11-26T18:43:21.849Z,4.60
2022-11-26T18:48:23.674Z,4.70
2022-11-26T18:53:26.019Z,4.70
2022-11-26T18:58:27.944Z,4.70
2022-11-26T19:03:29.851Z,4.60
2022-11-26T19:08:32.580Z,4.50
2022-11-26T19:13:34.974Z,4.50
2022-11-26T19:18:36.819Z,4.40
2022-11-26T19:23:38.641Z,4.30
2022-11-26T19:28:40.603Z,4.40
2022-11-26T19:33:42.710Z,4.50
2022-11-26T19:38:45.511Z,4.50
2022-11-26T19:43:47.374Z,4.50
2022-11-26T19:48:51.266Z,4.40
2022-11-26T19:53:54.911Z,4.30
2022-11-26T19:58:58.655Z,4.30
2022-11-26T20:04:05.308Z,4.30
2022-11-26T20:09:08.791Z,4.30
2022-11-26T20:14:10.843Z,4.20
2022-11-26T20:19:13.346Z,4.20
2022-11-26T20:24:16.829Z,4.00
2022-11-26T20:29:20.081Z,4.00
2022-11-26T20:34:26.125Z,4.00
2022-11-26T20:39:29.796Z,4.00
2022-11-26T20:44:31.778Z,4.00
2022-11-26T20:49:35.982Z,3.90
2022-11-26T20:54:39.678Z,3.80
2022-11-26T20:59:41.836Z,3.80
2022-11-26T21:04:43.870Z,3.90
2022-11-26T21:09:46.964Z,3.90
2022-11-26T21:14:48.768Z,3.60
2022-11-26T21:19:50.583Z,3.60
2022-11-26T21:24:52.454Z,3.60
2022-11-26T21:29:54.399Z,3.60
2022-11-26T21:34:58.350Z,3.50
2022-11-26T21:40:00.160Z,3.40
2022-11-26T21:45:02.211Z,3.30
2022-11-26T21:50:05.038Z,3.20
2022-11-26T21:55:07.193Z,3.30
2022-11-26T22:00:09.942Z,3.20
2022-11-26T22:05:11.751Z,3.30
2022-11-26T22:10:13.634Z,3.10
2022-11-26T22:15:15.666Z,3.10
2022-11-26T22:20:18.213Z,3.10
2022-11-26T22:25:20.061Z,2.90
2022-11-26T22:30:22.056Z,2.90
2022-11-26T22:35:23.885Z,2.90
2022-11-26T22:40:25.762Z,2.80
2022-11-26T22:45:28.847Z,2.80
2022-11-26T22:50:30.661Z,2.80
2022-11-26T22:55:32.463Z,2.90
2022-11-26T23:00:52.313Z,2.80
2022-11-26T23:05:54.545Z,2.80
2022-11-26T23:10:56.430Z,2.70
2022-11-26T23:15:58.343Z,2.60
2022-11-26T23:21:18.753Z,2.60
2022-11-26T23:26:27.724Z,2.60
2022-11-26T23:31:32.190Z,2.70
2022-11-26T23:36:35.037Z,2.70
2022-11-26T23:41:36.982Z,2.70
2022-11-26T23:46:38.940Z,2.80
2022-11-26T23:51:40.914Z,2.70
2022-11-26T23:56:44.604Z,2.80
